createdAt,value
2017-08-01T00:01:00.818Z,100423.22
2017-08-01T00:02:06.679Z,100417.81
2017-08-01T00:03:12.687Z,100420.33
2017-08-01T00:04:18.698Z,100426.50
2017-08-01T00:05:25.649Z,100426.35
2017-08-01T00:06:31.664Z,100424.53
2017-08-01T00:07:37.629Z,100428.03
2017-08-01T00:08:43.690Z,100425.72
2017-08-01T00:09:49.799Z,100430.70
2017-08-01T00:10:56.446Z,100431.34
2017-08-01T00:12:02.546Z,100430.97
2017-08-01T00:13:08.412Z,100439.90
2017-08-01T00:14:14.610Z,100438.02
2017-08-01T00:15:20.768Z,100438.78
2017-08-01T00:16:29.190Z,100437.59
2017-08-01T00:17:35.216Z,100429.94
2017-08-01T00:18:41.390Z,100423.13
2017-08-01T00:19:47.446Z,100419.81
2017-08-01T00:20:54.074Z,100420.81
2017-08-01T00:22:00.765Z,100420.45
2017-08-01T00:23:06.789Z,100425.25
2017-08-01T00:24:13.030Z,100417.07
2017-08-01T00:25:19.106Z,100418.74
2017-08-01T00:26:25.725Z,100411.70
2017-08-01T00:27:31.731Z,100407.31
2017-08-01T00:28:37.824Z,100402.61
2017-08-01T00:29:43.905Z,100407.55
2017-08-01T00:30:52.043Z,100402.22
2017-08-01T00:31:58.058Z,100403.31
2017-08-01T00:33:04.180Z,100396.61
2017-08-01T00:34:10.190Z,100400.77
2017-08-01T00:35:16.281Z,100407.17
2017-08-01T00:36:22.914Z,100408.68
2017-08-01T00:37:29.063Z,100407.44
2017-08-01T00:38:35.523Z,100403.83
2017-08-01T00:39:41.542Z,100404.09
2017-08-01T00:40:47.587Z,100403.80
2017-08-01T00:41:53.616Z,100408.06
2017-08-01T00:42:59.678Z,100407.64
2017-08-01T00:44:05.977Z,100404.16
2017-08-01T00:45:12.609Z,100412.61
2017-08-01T00:46:18.641Z,100407.02
2017-08-01T00:47:24.642Z,100404.78
2017-08-01T00:48:30.727Z,100400.78
2017-08-01T00:49:36.748Z,100409.33
2017-08-01T00:50:43.645Z,100408.43
2017-08-01T00:51:52.641Z,100414.34
2017-08-01T00:52:58.654Z,100414.81
2017-08-01T00:54:05.443Z,100413.36
2017-08-01T00:55:11.682Z,100419.18
2017-08-01T00:56:18.581Z,100416.81
2017-08-01T00:57:24.593Z,100416.69
2017-08-01T00:58:30.675Z,100414.20
2017-08-01T00:59:36.703Z,100413.56
2017-08-01T01:00:42.504Z,100400.97
2017-08-01T01:01:48.370Z,100401.86
2017-08-01T01:02:54.421Z,100407.91
2017-08-01T01:04:00.446Z,100411.90
2017-08-01T01:05:06.459Z,100421.02
2017-08-01T01:06:12.566Z,100421.23
2017-08-01T01:07:19.414Z,100425.66
2017-08-01T01:08:25.431Z,100425.52
2017-08-01T01:09:31.101Z,100427.06
2017-08-01T01:10:37.116Z,100430.10
2017-08-01T01:11:43.169Z,100429.28
2017-08-01T01:12:49.346Z,100428.66
2017-08-01T01:13:56.196Z,100422.14
2017-08-01T01:15:02.311Z,100420.70
2017-08-01T01:16:08.317Z,100416.44
2017-08-01T01:17:14.399Z,100424.16
2017-08-01T01:18:20.547Z,100427.47
2017-08-01T01:19:26.551Z,100434.67
2017-08-01T01:20:32.674Z,100440.81
2017-08-01T01:21:38.725Z,100437.84
2017-08-01T01:22:44.729Z,100437.72
2017-08-01T01:23:50.777Z,100434.20
2017-08-01T01:24:56.786Z,100436.28
2017-08-01T01:26:03.510Z,100439.38
2017-08-01T01:27:09.563Z,100435.58
2017-08-01T01:28:15.640Z,100429.59
2017-08-01T01:29:21.734Z,100426.35
2017-08-01T01:30:27.457Z,100436.19
2017-08-01T01:31:32.917Z,100447.11
2017-08-01T01:32:38.652Z,100465.73
2017-08-01T01:33:44.622Z,100460.02
2017-08-01T01:34:50.066Z,100468.27
2017-08-01T01:35:55.481Z,100471.34
2017-08-01T01:37:00.774Z,100468.85
2017-08-01T01:38:05.877Z,100460.95
2017-08-01T01:39:13.934Z,100466.97
2017-08-01T01:40:19.407Z,100468.64
2017-08-01T01:41:24.737Z,100485.56
2017-08-01T01:42:30.046Z,100495.92
2017-08-01T01:43:35.156Z,100502.45
2017-08-01T01:44:40.394Z,100505.20
2017-08-01T01:45:46.297Z,100504.03
2017-08-01T01:46:52.422Z,100503.45
2017-08-01T01:47:57.714Z,100506.86
2017-08-01T01:49:03.355Z,100512.46
2017-08-01T01:50:08.495Z,100519.77
2017-08-01T01:51:13.794Z,100522.88
2017-08-01T01:52:19.171Z,100533.65
2017-08-01T01:53:25.016Z,100537.55
2017-08-01T01:54:30.453Z,100534.98
2017-08-01T01:55:36.491Z,100531.52
2017-08-01T01:56:42.509Z,100537.54
2017-08-01T01:57:48.689Z,100536.20
2017-08-01T01:58:55.483Z,100535.76
2017-08-01T02:00:01.529Z,100525.70
2017-08-01T02:01:07.417Z,100519.27
2017-08-01T02:02:13.510Z,100507.83
2017-08-01T02:03:19.577Z,100513.23
2017-08-01T02:04:25.405Z,100509.92
2017-08-01T02:05:31.419Z,100518.70
2017-08-01T02:06:37.476Z,100522.86
2017-08-01T02:07:43.712Z,100525.13
2017-08-01T02:08:50.299Z,100512.41
2017-08-01T02:09:55.760Z,100503.58
2017-08-01T02:11:01.778Z,100489.57
2017-08-01T02:12:07.955Z,100473.61
2017-08-01T02:13:14.338Z,100478.27
2017-08-01T02:14:20.355Z,100486.88
2017-08-01T02:15:26.105Z,100488.37
2017-08-01T02:16:32.217Z,100487.03
2017-08-01T02:17:38.320Z,100487.09
2017-08-01T02:18:44.478Z,100492.05
2017-08-01T02:19:50.636Z,100488.77
2017-08-01T02:20:55.975Z,100492.25
2017-08-01T02:22:02.185Z,100486.91
2017-08-01T02:23:17.447Z,100492.05
2017-08-01T02:24:23.151Z,100489.49
2017-08-01T02:25:28.838Z,100488.09
2017-08-01T02:26:34.721Z,100489.55
2017-08-01T02:27:40.725Z,100492.01
2017-08-01T02:28:46.769Z,100497.20
2017-08-01T02:29:53.003Z,100487.97
2017-08-01T02:30:58.694Z,100486.84
2017-08-01T02:32:04.372Z,100485.22
2017-08-01T02:33:10.401Z,100486.82
2017-08-01T02:34:16.077Z,100475.95
2017-08-01T02:35:22.179Z,100476.95
2017-08-01T02:36:27.855Z,100473.68
2017-08-01T02:37:33.858Z,100464.39
2017-08-01T02:38:40.013Z,100458.63
2017-08-01T02:39:46.072Z,100453.14
2017-08-01T02:40:52.186Z,100431.62
2017-08-01T02:41:58.180Z,100415.90
2017-08-01T02:43:04.197Z,100408.27
2017-08-01T02:44:10.256Z,100396.81
2017-08-01T02:45:16.033Z,100379.92
2017-08-01T02:46:22.226Z,100364.90
2017-08-01T02:47:28.261Z,100362.40
2017-08-01T02:48:34.021Z,100362.97
2017-08-01T02:49:40.084Z,100370.55
2017-08-01T02:50:46.150Z,100369.02
2017-08-01T02:51:52.185Z,100366.36
2017-08-01T02:52:58.284Z,100374.42
2017-08-01T02:54:04.417Z,100374.57
2017-08-01T02:55:10.522Z,100382.38
2017-08-01T02:56:17.238Z,100387.35
2017-08-01T02:57:24.036Z,100399.50
2017-08-01T02:58:30.022Z,100402.59
2017-08-01T02:59:36.120Z,100408.42
2017-08-01T03:00:42.109Z,100417.27
2017-08-01T03:01:47.937Z,100421.80
2017-08-01T03:02:53.927Z,100419.30
2017-08-01T03:03:59.899Z,100409.50
2017-08-01T03:05:05.874Z,100391.76
2017-08-01T03:06:11.865Z,100370.73
2017-08-01T03:07:17.910Z,100344.66
2017-08-01T03:08:24.620Z,100334.73
2017-08-01T03:09:30.715Z,100328.61
2017-08-01T03:10:36.817Z,100334.44
2017-08-01T03:11:43.670Z,100345.03
2017-08-01T03:12:49.881Z,100378.47
2017-08-01T03:13:55.951Z,100408.50
2017-08-01T03:15:02.046Z,100448.88
2017-08-01T03:16:08.054Z,100486.88
2017-08-01T03:17:14.215Z,100523.81
2017-08-01T03:18:20.213Z,100544.22
2017-08-01T03:19:26.996Z,100567.44
2017-08-01T03:20:32.997Z,100580.57
2017-08-01T03:21:39.001Z,100586.72
2017-08-01T03:22:45.048Z,100595.09
2017-08-01T03:23:51.078Z,100598.95
2017-08-01T03:24:57.086Z,100604.55
2017-08-01T03:26:03.750Z,100605.34
2017-08-01T03:27:09.761Z,100594.88
2017-08-01T03:28:16.533Z,100597.12
2017-08-01T03:29:23.493Z,100599.68
2017-08-01T03:30:29.495Z,100601.13
2017-08-01T03:31:36.337Z,100613.31
2017-08-01T03:32:42.359Z,100622.98
2017-08-01T03:33:48.508Z,100650.27
2017-08-01T03:34:54.594Z,100633.77
2017-08-01T03:36:00.599Z,100618.11
2017-08-01T03:37:07.231Z,100615.77
2017-08-01T03:38:13.244Z,100612.88
2017-08-01T03:39:19.564Z,100612.71
2017-08-01T03:40:25.881Z,100610.95
2017-08-01T03:41:32.057Z,100597.55
2017-08-01T03:42:38.949Z,100592.53
2017-08-01T03:43:45.054Z,100577.66
2017-08-01T03:44:51.823Z,100569.46
2017-08-01T03:45:57.849Z,100576.14
2017-08-01T03:47:04.103Z,100582.42
2017-08-01T03:48:10.192Z,100588.73
2017-08-01T03:49:16.955Z,100598.94
2017-08-01T03:50:24.272Z,100593.50
2017-08-01T03:51:31.971Z,100604.18
2017-08-01T03:52:38.553Z,100600.75
2017-08-01T03:53:44.596Z,100615.91
2017-08-01T03:54:50.606Z,100631.84
2017-08-01T03:55:56.674Z,100636.74
2017-08-01T03:57:02.677Z,100646.75
2017-08-01T03:58:08.756Z,100673.83
2017-08-01T03:59:15.494Z,100689.53
2017-08-01T04:00:21.521Z,100711.00
2017-08-01T04:01:27.361Z,100727.73
2017-08-01T04:02:34.328Z,100742.48
2017-08-01T04:03:41.182Z,100753.22
2017-08-01T04:04:47.218Z,100752.73
2017-08-01T04:05:53.288Z,100764.12
2017-08-01T04:06:59.345Z,100774.80
2017-08-01T04:08:05.463Z,100789.48
2017-08-01T04:09:11.497Z,100813.32
2017-08-01T04:10:17.493Z,100829.03
2017-08-01T04:11:23.604Z,100856.52
2017-08-01T04:12:29.910Z,100890.55
2017-08-01T04:13:35.911Z,100922.53
2017-08-01T04:14:41.911Z,100949.05
2017-08-01T04:15:48.593Z,100978.77
2017-08-01T04:16:54.594Z,100985.44
2017-08-01T04:18:00.673Z,100997.34
2017-08-01T04:19:07.347Z,100982.77
2017-08-01T04:20:14.093Z,100982.39
2017-08-01T04:21:20.261Z,100962.09
2017-08-01T04:22:33.491Z,100963.05
2017-08-01T04:23:43.296Z,100971.87
2017-08-01T04:24:52.544Z,100958.16
2017-08-01T04:26:00.055Z,100956.05
2017-08-01T04:27:07.893Z,100931.00
2017-08-01T04:28:16.333Z,100916.78
2017-08-01T04:29:22.498Z,100904.20
2017-08-01T04:30:35.459Z,100887.92
2017-08-01T04:31:41.928Z,100882.27
2017-08-01T04:32:48.251Z,100861.17
2017-08-01T04:33:54.351Z,100852.75
2017-08-01T04:35:00.378Z,100853.17
2017-08-01T04:36:07.191Z,100852.92
2017-08-01T04:37:13.904Z,100838.35
2017-08-01T04:38:19.906Z,100825.37
2017-08-01T04:39:25.926Z,100820.08
2017-08-01T04:40:32.751Z,100826.93
2017-08-01T04:41:39.497Z,100827.04
2017-08-01T04:42:45.760Z,100807.33
2017-08-01T04:43:53.850Z,100788.97
2017-08-01T04:45:06.188Z,100769.73
2017-08-01T04:46:12.296Z,100763.66
2017-08-01T04:47:18.636Z,100734.28
2017-08-01T04:48:25.975Z,100712.46
2017-08-01T04:49:31.998Z,100684.17
2017-08-01T04:50:38.479Z,100665.03
2017-08-01T04:51:44.521Z,100646.68
2017-08-01T04:52:50.525Z,100623.81
2017-08-01T04:53:56.538Z,100594.82
2017-08-01T04:55:02.561Z,100568.01
2017-08-01T04:56:08.568Z,100551.30
2017-08-01T04:57:14.638Z,100549.80
2017-08-01T04:58:20.822Z,100554.80
2017-08-01T04:59:26.846Z,100563.23
2017-08-01T05:00:32.853Z,100556.81
2017-08-01T05:01:38.666Z,100544.77
2017-08-01T05:02:44.718Z,100545.72
2017-08-01T05:03:50.734Z,100543.59
2017-08-01T05:04:56.837Z,100546.13
2017-08-01T05:06:02.951Z,100529.02
2017-08-01T05:07:08.962Z,100518.29
2017-08-01T05:08:15.113Z,100507.05
2017-08-01T05:09:21.122Z,100508.63
2017-08-01T05:10:27.383Z,100510.45
2017-08-01T05:11:33.395Z,100509.44
2017-08-01T05:12:39.389Z,100517.47
2017-08-01T05:13:46.114Z,100531.20
2017-08-01T05:14:52.126Z,100548.33
2017-08-01T05:15:58.136Z,100557.36
2017-08-01T05:17:04.226Z,100561.10
2017-08-01T05:18:10.243Z,100562.33
2017-08-01T05:19:16.267Z,100554.56
2017-08-01T05:20:22.419Z,100545.72
2017-08-01T05:21:28.441Z,100549.73
2017-08-01T05:22:34.574Z,100547.18
2017-08-01T05:23:40.641Z,100562.66
2017-08-01T05:24:46.822Z,100572.47
2017-08-01T05:25:52.834Z,100577.49
2017-08-01T05:26:58.883Z,100573.22
2017-08-01T05:28:05.265Z,100573.31
2017-08-01T05:29:11.428Z,100577.04
2017-08-01T05:30:17.493Z,100587.15
2017-08-01T05:31:23.402Z,100595.14
2017-08-01T05:32:29.447Z,100600.13
2017-08-01T05:33:35.468Z,100604.88
2017-08-01T05:34:42.244Z,100604.49
2017-08-01T05:35:48.362Z,100598.63
2017-08-01T05:36:54.496Z,100595.91
2017-08-01T05:38:00.513Z,100589.41
2017-08-01T05:39:06.179Z,100591.55
2017-08-01T05:40:12.253Z,100581.69
2017-08-01T05:41:18.327Z,100578.83
2017-08-01T05:42:24.372Z,100581.48
2017-08-01T05:43:30.459Z,100576.58
2017-08-01T05:44:37.057Z,100563.52
2017-08-01T05:45:43.071Z,100552.98
2017-08-01T05:46:49.833Z,100563.50
2017-08-01T05:47:55.860Z,100575.58
2017-08-01T05:49:01.869Z,100582.05
2017-08-01T05:50:08.050Z,100574.34
2017-08-01T05:51:14.925Z,100571.45
2017-08-01T05:52:21.155Z,100550.05
2017-08-01T05:53:27.927Z,100542.02
2017-08-01T05:54:33.736Z,100547.42
2017-08-01T05:55:39.754Z,100549.77
2017-08-01T05:56:45.777Z,100555.84
2017-08-01T05:57:51.846Z,100566.13
2017-08-01T05:58:57.937Z,100575.03
2017-08-01T06:00:04.145Z,100572.43
2017-08-01T06:01:10.759Z,100571.49
2017-08-01T06:02:16.787Z,100559.63
2017-08-01T06:03:23.690Z,100562.41
2017-08-01T06:04:29.789Z,100565.53
2017-08-01T06:05:35.951Z,100573.52
2017-08-01T06:06:42.450Z,100581.06
2017-08-01T06:07:48.480Z,100585.84
2017-08-01T06:08:54.569Z,100605.81
2017-08-01T06:10:00.710Z,100611.52
2017-08-01T06:11:06.795Z,100608.17
2017-08-01T06:12:12.884Z,100606.03
2017-08-01T06:13:18.787Z,100592.95
2017-08-01T06:14:24.964Z,100584.38
2017-08-01T06:15:30.784Z,100571.99
2017-08-01T06:16:36.673Z,100561.70
2017-08-01T06:17:42.793Z,100552.34
2017-08-01T06:18:48.801Z,100546.94
2017-08-01T06:19:54.901Z,100546.94
2017-08-01T06:21:01.586Z,100536.13
2017-08-01T06:22:07.421Z,100535.77
2017-08-01T06:23:13.439Z,100532.05
2017-08-01T06:24:19.315Z,100536.55
2017-08-01T06:25:25.363Z,100543.20
2017-08-01T06:26:31.994Z,100536.75
2017-08-01T06:27:38.486Z,100528.47
2017-08-01T06:28:45.274Z,100528.67
2017-08-01T06:29:51.441Z,100527.65
2017-08-01T06:30:57.781Z,100525.87
2017-08-01T06:32:03.829Z,100522.97
2017-08-01T06:33:09.843Z,100522.67
2017-08-01T06:34:15.854Z,100530.22
2017-08-01T06:35:21.915Z,100530.88
2017-08-01T06:36:27.968Z,100534.81
2017-08-01T06:37:34.077Z,100536.05
2017-08-01T06:38:40.152Z,100534.55
2017-08-01T06:39:46.010Z,100531.08
2017-08-01T06:40:52.038Z,100530.38
2017-08-01T06:41:58.150Z,100526.36
2017-08-01T06:43:04.197Z,100528.94
2017-08-01T06:44:10.839Z,100530.09
2017-08-01T06:45:17.510Z,100535.37
2017-08-01T06:46:23.723Z,100529.77
2017-08-01T06:47:29.861Z,100532.36
2017-08-01T06:48:36.427Z,100543.59
2017-08-01T06:49:42.530Z,100544.59
2017-08-01T06:50:48.378Z,100545.25
2017-08-01T06:51:54.404Z,100546.02
2017-08-01T06:53:00.482Z,100557.70
2017-08-01T06:54:06.522Z,100552.64
2017-08-01T06:55:12.558Z,100557.41
2017-08-01T06:56:18.566Z,100549.55
2017-08-01T06:57:24.629Z,100548.75
2017-08-01T06:58:30.641Z,100544.95
2017-08-01T06:59:36.655Z,100546.64
2017-08-01T07:00:42.663Z,100550.14
2017-08-01T07:01:48.941Z,100554.91
2017-08-01T07:02:55.006Z,100550.48
2017-08-01T07:04:01.176Z,100554.19
2017-08-01T07:05:07.240Z,100557.61
2017-08-01T07:06:13.253Z,100560.88
2017-08-01T07:07:19.352Z,100559.27
2017-08-01T07:08:25.762Z,100562.11
2017-08-01T07:09:31.878Z,100566.05
2017-08-01T07:10:37.983Z,100565.13
2017-08-01T07:11:44.010Z,100562.30
2017-08-01T07:12:50.349Z,100551.19
2017-08-01T07:13:57.179Z,100547.44
2017-08-01T07:15:03.230Z,100535.81
2017-08-01T07:16:09.872Z,100534.10
2017-08-01T07:17:15.887Z,100522.02
2017-08-01T07:18:21.948Z,100527.25
2017-08-01T07:19:27.969Z,100525.68
2017-08-01T07:20:34.069Z,100533.74
2017-08-01T07:21:40.198Z,100528.35
2017-08-01T07:22:46.283Z,100529.13
2017-08-01T07:23:52.297Z,100515.98
2017-08-01T07:24:58.453Z,100511.88
2017-08-01T07:26:04.676Z,100517.38
2017-08-01T07:27:10.685Z,100507.40
2017-08-01T07:28:16.693Z,100503.78
2017-08-01T07:29:22.739Z,100511.88
2017-08-01T07:30:28.897Z,100510.95
2017-08-01T07:31:34.912Z,100518.39
2017-08-01T07:32:41.049Z,100518.03
2017-08-01T07:33:47.055Z,100525.33
2017-08-01T07:34:53.110Z,100538.95
2017-08-01T07:35:59.174Z,100526.41
2017-08-01T07:37:05.063Z,100518.34
2017-08-01T07:38:11.650Z,100500.59
2017-08-01T07:39:17.646Z,100502.34
2017-08-01T07:40:24.298Z,100507.34
2017-08-01T07:41:30.334Z,100508.55
2017-08-01T07:42:36.357Z,100522.84
2017-08-01T07:43:43.141Z,100525.33
2017-08-01T07:44:49.809Z,100526.22
2017-08-01T07:45:55.815Z,100529.05
2017-08-01T07:47:01.903Z,100530.62
2017-08-01T07:48:07.934Z,100541.28
2017-08-01T07:49:13.998Z,100534.23
2017-08-01T07:50:20.758Z,100519.05
2017-08-01T07:51:26.940Z,100507.37
2017-08-01T07:52:33.526Z,100512.95
2017-08-01T07:53:39.524Z,100530.34
2017-08-01T07:54:45.545Z,100523.88
2017-08-01T07:55:51.547Z,100522.80
2017-08-01T07:56:57.615Z,100512.31
2017-08-01T07:58:03.631Z,100478.91
2017-08-01T07:59:09.668Z,100450.01
2017-08-01T08:00:15.697Z,100465.97
2017-08-01T08:01:21.791Z,100501.16
2017-08-01T08:02:27.842Z,100505.92
2017-08-01T08:03:34.659Z,100509.91
2017-08-01T08:04:40.690Z,100525.39
2017-08-01T08:05:46.803Z,100532.75
2017-08-01T08:06:53.378Z,100542.98
2017-08-01T08:07:59.441Z,100537.41
2017-08-01T08:09:04.736Z,100530.62
2017-08-01T08:10:10.738Z,100520.16
2017-08-01T08:11:16.747Z,100504.25
2017-08-01T08:12:22.862Z,100498.54
2017-08-01T08:13:29.007Z,100497.69
2017-08-01T08:14:35.065Z,100506.58
2017-08-01T08:15:41.082Z,100510.31
2017-08-01T08:16:47.090Z,100520.23
2017-08-01T08:17:53.106Z,100528.63
2017-08-01T08:18:59.136Z,100534.88
2017-08-01T08:20:05.938Z,100534.12
2017-08-01T08:21:11.666Z,100528.16
2017-08-01T08:22:17.469Z,100513.59
2017-08-01T08:23:24.470Z,100496.27
2017-08-01T08:24:30.526Z,100481.77
2017-08-01T08:25:36.569Z,100480.20
2017-08-01T08:26:42.670Z,100493.17
2017-08-01T08:27:48.799Z,100511.91
2017-08-01T08:28:54.825Z,100516.42
2017-08-01T08:30:01.042Z,100518.79
2017-08-01T08:31:07.066Z,100522.30
2017-08-01T08:32:13.094Z,100539.00
2017-08-01T08:33:19.249Z,100541.11
2017-08-01T08:34:25.923Z,100526.80
2017-08-01T08:35:32.657Z,100527.44
2017-08-01T08:36:38.743Z,100532.44
2017-08-01T08:37:44.854Z,100543.11
2017-08-01T08:38:50.901Z,100558.69
2017-08-01T08:39:56.973Z,100558.53
2017-08-01T08:41:03.018Z,100563.78
2017-08-01T08:42:09.038Z,100566.86
2017-08-01T08:43:15.045Z,100567.09
2017-08-01T08:44:21.122Z,100567.55
2017-08-01T08:45:27.165Z,100565.19
2017-08-01T08:46:33.263Z,100571.51
2017-08-01T08:47:40.075Z,100572.78
2017-08-01T08:48:46.081Z,100561.53
2017-08-01T08:49:52.859Z,100561.47
2017-08-01T08:50:58.897Z,100564.16
2017-08-01T08:52:05.021Z,100554.86
2017-08-01T08:53:11.725Z,100556.73
2017-08-01T08:54:17.814Z,100559.47
2017-08-01T08:55:23.831Z,100555.16
2017-08-01T08:56:29.847Z,100546.84
2017-08-01T08:57:35.759Z,100542.08
2017-08-01T08:58:41.796Z,100537.28
2017-08-01T08:59:47.802Z,100536.65
2017-08-01T09:00:54.034Z,100534.23
2017-08-01T09:02:00.071Z,100532.09
2017-08-01T09:03:06.106Z,100531.27
2017-08-01T09:04:12.123Z,100533.05
2017-08-01T09:05:18.165Z,100521.30
2017-08-01T09:06:24.925Z,100526.13
2017-08-01T09:07:30.930Z,100508.51
2017-08-01T09:08:37.630Z,100511.55
2017-08-01T09:09:43.694Z,100511.08
2017-08-01T09:10:49.754Z,100518.14
2017-08-01T09:11:55.772Z,100524.38
2017-08-01T09:13:01.597Z,100526.69
2017-08-01T09:14:07.666Z,100514.61
2017-08-01T09:15:13.747Z,100524.94
2017-08-01T09:16:19.758Z,100523.37
2017-08-01T09:17:31.698Z,100526.72
2017-08-01T09:18:37.783Z,100519.95
2017-08-01T09:19:43.826Z,100522.86
2017-08-01T09:20:49.865Z,100520.67
2017-08-01T09:21:55.882Z,100520.22
2017-08-01T09:23:01.922Z,100519.41
2017-08-01T09:24:07.938Z,100516.75
2017-08-01T09:25:14.761Z,100508.86
2017-08-01T09:26:20.765Z,100513.19
2017-08-01T09:27:26.858Z,100512.19
2017-08-01T09:28:33.773Z,100512.69
2017-08-01T09:29:39.781Z,100512.75
2017-08-01T09:30:45.851Z,100518.84
2017-08-01T09:31:51.901Z,100512.50
2017-08-01T09:32:58.537Z,100521.91
2017-08-01T09:34:04.569Z,100517.64
2017-08-01T09:35:10.591Z,100507.71
2017-08-01T09:36:16.709Z,100511.53
2017-08-01T09:37:22.721Z,100506.20
2017-08-01T09:38:28.753Z,100505.28
2017-08-01T09:39:34.848Z,100502.39
2017-08-01T09:40:41.554Z,100492.91
2017-08-01T09:41:47.619Z,100493.31
2017-08-01T09:42:53.807Z,100489.22
2017-08-01T09:43:59.816Z,100481.47
2017-08-01T09:45:05.839Z,100488.36
2017-08-01T09:46:11.919Z,100490.75
2017-08-01T09:47:17.966Z,100486.34
2017-08-01T09:48:23.986Z,100492.94
2017-08-01T09:49:30.121Z,100495.55
2017-08-01T09:50:36.227Z,100483.45
2017-08-01T09:51:42.351Z,100479.75
2017-08-01T09:52:48.407Z,100487.50
2017-08-01T09:53:54.420Z,100478.38
2017-08-01T09:55:00.476Z,100474.77
2017-08-01T09:56:06.555Z,100476.59
2017-08-01T09:57:12.607Z,100473.68
2017-08-01T09:58:19.278Z,100476.70
2017-08-01T09:59:25.306Z,100469.78
2017-08-01T10:00:32.193Z,100468.86
2017-08-01T10:01:38.185Z,100469.98
2017-08-01T10:02:44.251Z,100473.11
2017-08-01T10:03:50.319Z,100469.16
2017-08-01T10:04:56.421Z,100467.76
2017-08-01T10:06:02.529Z,100471.23
2017-08-01T10:07:08.541Z,100476.17
2017-08-01T10:08:14.567Z,100474.98
2017-08-01T10:09:20.409Z,100474.79
2017-08-01T10:10:26.409Z,100479.45
2017-08-01T10:11:33.178Z,100481.47
2017-08-01T10:12:39.192Z,100478.02
2017-08-01T10:13:45.201Z,100481.37
2017-08-01T10:14:51.065Z,100487.52
2017-08-01T10:15:57.062Z,100487.25
2017-08-01T10:17:02.910Z,100491.16
2017-08-01T10:18:08.909Z,100483.75
2017-08-01T10:19:14.946Z,100483.14
2017-08-01T10:20:21.006Z,100479.02
2017-08-01T10:21:27.626Z,100484.92
2017-08-01T10:22:33.631Z,100484.34
2017-08-01T10:23:39.367Z,100488.45
2017-08-01T10:24:45.470Z,100483.45
2017-08-01T10:25:51.518Z,100470.70
2017-08-01T10:26:56.898Z,100463.51
2017-08-01T10:28:02.916Z,100472.45
2017-08-01T10:29:08.660Z,100466.51
2017-08-01T10:30:14.384Z,100471.86
2017-08-01T10:31:20.421Z,100474.63
2017-08-01T10:32:26.125Z,100470.75
2017-08-01T10:33:31.984Z,100471.66
2017-08-01T10:34:37.783Z,100467.16
2017-08-01T10:35:43.798Z,100474.50
2017-08-01T10:36:49.926Z,100465.50
2017-08-01T10:37:56.427Z,100470.45
2017-08-01T10:39:02.150Z,100483.77
2017-08-01T10:40:07.898Z,100477.19
2017-08-01T10:41:13.708Z,100481.70
2017-08-01T10:42:19.523Z,100484.38
2017-08-01T10:43:25.591Z,100490.81
2017-08-01T10:44:31.604Z,100486.92
2017-08-01T10:45:37.329Z,100483.70
2017-08-01T10:46:43.343Z,100483.13
2017-08-01T10:47:49.165Z,100489.05
2017-08-01T10:48:54.876Z,100492.06
2017-08-01T10:50:00.901Z,100501.08
2017-08-01T10:51:07.039Z,100492.25
2017-08-01T10:52:12.767Z,100500.28
2017-08-01T10:53:18.573Z,100510.41
2017-08-01T10:54:24.298Z,100519.17
2017-08-01T10:55:30.067Z,100521.56
2017-08-01T10:56:36.169Z,100519.58
2017-08-01T10:57:41.953Z,100526.44
2017-08-01T10:58:48.055Z,100512.59
2017-08-01T10:59:53.782Z,100519.37
2017-08-01T11:00:59.501Z,100514.86
2017-08-01T11:02:05.221Z,100508.67
2017-08-01T11:03:10.941Z,100510.50
2017-08-01T11:04:16.759Z,100511.28
2017-08-01T11:05:22.575Z,100510.75
2017-08-01T11:06:28.302Z,100510.33
2017-08-01T11:07:34.434Z,100518.64
2017-08-01T11:08:40.919Z,100513.33
2017-08-01T11:09:46.701Z,100518.92
2017-08-01T11:10:52.464Z,100519.75
2017-08-01T11:11:58.245Z,100515.55
2017-08-01T11:13:04.002Z,100509.34
2017-08-01T11:14:09.721Z,100514.66
2017-08-01T11:15:15.505Z,100511.25
2017-08-01T11:16:21.249Z,100512.74
2017-08-01T11:17:27.681Z,100497.56
2017-08-01T11:18:33.399Z,100492.57
2017-08-01T11:19:39.129Z,100494.19
2017-08-01T11:20:44.992Z,100491.53
2017-08-01T11:21:50.725Z,100486.77
2017-08-01T11:22:56.432Z,100485.79
2017-08-01T11:24:02.154Z,100484.05
2017-08-01T11:25:07.959Z,100478.30
2017-08-01T11:26:13.804Z,100478.96
2017-08-01T11:27:19.533Z,100469.23
2017-08-01T11:28:25.246Z,100468.02
2017-08-01T11:29:30.978Z,100464.92
2017-08-01T11:30:36.699Z,100473.75
2017-08-01T11:31:43.055Z,100469.10
2017-08-01T11:32:48.900Z,100468.61
2017-08-01T11:33:54.664Z,100463.78
2017-08-01T11:35:00.384Z,100462.84
2017-08-01T11:36:06.095Z,100466.95
2017-08-01T11:37:11.850Z,100461.92
2017-08-01T11:38:17.585Z,100451.58
2017-08-01T11:39:23.321Z,100444.84
2017-08-01T11:40:29.825Z,100440.86
2017-08-01T11:41:35.646Z,100448.36
2017-08-01T11:42:42.113Z,100449.38
2017-08-01T11:43:47.829Z,100451.73
2017-08-01T11:44:53.614Z,100441.91
2017-08-01T11:45:59.335Z,100441.08
2017-08-01T11:47:05.054Z,100437.59
2017-08-01T11:48:10.819Z,100435.35
2017-08-01T11:49:17.178Z,100445.58
2017-08-01T11:50:23.013Z,100438.29
2017-08-01T11:51:28.733Z,100440.34
2017-08-01T11:52:34.454Z,100448.94
2017-08-01T11:53:40.299Z,100450.30
2017-08-01T11:54:46.633Z,100448.25
2017-08-01T11:55:53.104Z,100448.25
2017-08-01T11:56:58.847Z,100448.16
2017-08-01T11:58:04.563Z,100449.04
2017-08-01T11:59:10.332Z,100440.06
2017-08-01T12:00:16.050Z,100444.25
2017-08-01T12:01:21.839Z,100435.31
2017-08-01T12:02:27.554Z,100436.25
2017-08-01T12:03:33.279Z,100440.43
2017-08-01T12:04:39.046Z,100434.56
2017-08-01T12:05:44.639Z,100433.45
2017-08-01T12:06:50.441Z,100429.48
2017-08-01T12:07:56.240Z,100423.86
2017-08-01T12:09:01.971Z,100424.91
2017-08-01T12:10:07.521Z,100418.20
2017-08-01T12:11:13.320Z,100415.83
2017-08-01T12:12:19.673Z,100414.05
2017-08-01T12:13:25.430Z,100411.80
2017-08-01T12:14:31.162Z,100418.23
2017-08-01T12:15:36.663Z,100412.28
2017-08-01T12:16:42.858Z,100418.83
2017-08-01T12:17:48.584Z,100417.04
2017-08-01T12:18:54.337Z,100406.36
2017-08-01T12:20:00.046Z,100407.06
2017-08-01T12:21:05.790Z,100400.17
2017-08-01T12:22:11.503Z,100403.33
2017-08-01T12:23:17.214Z,100405.59
2017-08-01T12:24:23.037Z,100403.44
2017-08-01T12:25:28.838Z,100405.17
2017-08-01T12:26:34.605Z,100397.94
2017-08-01T12:27:40.401Z,100399.14
2017-08-01T12:28:46.234Z,100393.33
2017-08-01T12:29:52.045Z,100386.30
2017-08-01T12:30:58.957Z,100381.03
2017-08-01T12:32:04.797Z,100379.90
2017-08-01T12:33:10.578Z,100387.12
2017-08-01T12:34:16.321Z,100381.11
2017-08-01T12:35:22.042Z,100382.51